Time,TemperatureF,DewpointF,PressureIn,WindDirection,WindDirectionDegrees,WindSpeedMPH,WindSpeedGustMPH,Humidity,HourlyPrecipIn,Conditions,Clouds,dailyrainin,SolarRadiationWatts/m^2,SoftwareType,DateUTC
2013-01-01 00:02:00,37.0,35.0,-100.00,WSW,250,2.0,4.0,94,0.00,,,0.54,0.000000,,2013-01-01 06:02:00,
2013-01-01 00:33:00,37.0,35.0,-100.00,WSW,250,2.0,4.0,94,0.00,,,0.54,0.000000,,2013-01-01 06:33:00,
2013-01-01 00:42:00,37.0,35.0,-100.00,WSW,250,2.0,4.0,94,0.00,,,0.54,0.000000,,2013-01-01 06:42:00,
2013-01-01 00:52:00,37.0,35.0,-100.00,WSW,250,2.0,4.0,94,0.00,,,0.54,0.000000,,2013-01-01 06:52:00,
2013-01-01 01:02:00,38.0,36.0,-100.00,WSW,254,2.0,4.0,94,0.00,,,0.54,0.000000,,2013-01-01 07:02:00,
2013-01-01 01:22:00,38.0,36.0,-100.00,WSW,254,2.0,4.0,94,0.00,,,0.54,0.000000,,2013-01-01 07:22:00,
2013-01-01 01:32:00,38.0,36.0,-100.00,WSW,254,2.0,4.0,94,0.00,,,0.54,0.000000,,2013-01-01 07:32:00,
2013-01-01 01:42:00,38.0,36.0,-100.00,WSW,254,2.0,4.0,94,0.00,,,0.54,0.000000,,2013-01-01 07:42:00,
2013-01-01 01:52:00,38.0,36.0,-100.00,WSW,254,2.0,4.0,94,0.00,,,0.54,0.000000,,2013-01-01 07:52:00,
2013-01-01 02:02:00,38.0,36.0,-100.00,SSW,200,1.0,2.0,94,0.00,,,0.54,0.000000,,2013-01-01 08:02:00,
2013-01-01 02:32:00,38.0,36.0,-100.00,SSW,200,1.0,2.0,94,0.00,,,0.54,0.000000,,2013-01-01 08:32:00,
2013-01-01 02:42:00,38.0,36.0,-100.00,SSW,200,1.0,2.0,94,0.00,,,0.54,0.000000,,2013-01-01 08:42:00,
2013-01-01 02:53:00,38.0,36.0,-100.00,SSW,200,1.0,2.0,94,0.00,,,0.54,0.000000,,2013-01-01 08:53:00,
2013-01-01 03:02:00,37.0,35.0,-100.00,WSW,249,3.0,4.0,94,0.00,,,0.54,0.000000,,2013-01-01 09:02:00,
2013-01-01 03:22:00,37.0,35.0,-100.00,WSW,249,3.0,4.0,94,0.00,,,0.54,0.000000,,2013-01-01 09:22:00,
2013-01-01 03:32:00,37.0,35.0,-100.00,WSW,249,3.0,4.0,94,0.00,,,0.54,0.000000,,2013-01-01 09:32:00,
2013-01-01 03:42:00,37.0,35.0,-100.00,WSW,249,3.0,4.0,94,0.00,,,0.54,0.000000,,2013-01-01 09:42:00,
2013-01-01 03:52:00,37.0,35.0,-100.00,WSW,249,3.0,4.0,94,0.00,,,0.54,0.000000,,2013-01-01 09:52:00,
2013-01-01 04:02:00,37.0,35.0,-100.00,WSW,247,1.0,4.0,94,0.00,,,0.54,0.000000,,2013-01-01 10:02:00,
2013-01-01 04:33:00,37.0,35.0,-100.00,WSW,247,1.0,4.0,94,0.00,,,0.54,0.000000,,2013-01-01 10:33:00,
2013-01-01 04:43:00,37.0,35.0,-100.00,WSW,247,1.0,4.0,94,0.00,,,0.54,0.000000,,2013-01-01 10:43:00,
2013-01-01 04:53:00,37.0,35.0,-100.00,WSW,247,1.0,4.0,94,0.00,,,0.54,0.000000,,2013-01-01 10:53:00,
2013-01-01 05:02:00,38.0,36.0,-100.00,WNW,295,2.0,5.0,94,0.00,,,0.54,0.000000,,2013-01-01 11:02:00,
2013-01-01 05:23:00,38.0,36.0,-100.00,WNW,295,2.0,5.0,94,0.00,,,0.54,0.000000,,2013-01-01 11:23:00,
2013-01-01 05:33:00,38.0,36.0,-100.00,WNW,295,2.0,5.0,94,0.00,,,0.54,0.000000,,2013-01-01 11:33:00,
2013-01-01 05:43:00,38.0,36.0,-100.00,WNW,295,2.0,5.0,94,0.00,,,0.54,0.000000,,2013-01-01 11:43:00,
2013-01-01 05:53:00,38.0,36.0,-100.00,WNW,295,2.0,5.0,94,0.00,,,0.54,0.000000,,2013-01-01 11:53:00,
2013-01-01 06:02:00,38.0,36.0,-100.00,North,1,1.0,5.0,94,0.00,,,0.54,0.000000,,2013-01-01 12:02:00,
2013-01-01 06:33:00,38.0,36.0,-100.00,North,1,1.0,5.0,94,0.00,,,0.54,0.000000,,2013-01-01 12:33:00,
2013-01-01 06:43:00,38.0,36.0,-100.00,North,1,1.0,5.0,94,0.00,,,0.54,0.000000,,2013-01-01 12:43:00,
2013-01-01 06:53:00,38.0,36.0,-100.00,North,1,1.0,5.0,94,0.00,,,0.54,0.000000,,2013-01-01 12:53:00,
2013-01-01 07:02:00,39.0,37.0,-100.00,West,272,3.0,5.0,94,0.00,,,0.54,0.000000,,2013-01-01 13:02:00,
2013-01-01 07:33:00,39.0,37.0,-100.00,West,272,3.0,5.0,94,0.00,,,0.54,0.000000,,2013-01-01 13:33:00,
2013-01-01 07:43:00,39.0,37.0,-100.00,West,272,3.0,5.0,94,0.00,,,0.54,0.000000,,2013-01-01 13:43:00,
2013-01-01 07:53:00,39.0,37.0,-100.00,West,272,3.0,5.0,94,0.00,,,0.54,0.000000,,2013-01-01 13:53:00,
2013-01-01 08:02:00,39.0,37.0,-100.00,WNW,291,3.0,7.0,94,0.00,,,0.54,1.000000,,2013-01-01 14:02:00,
2013-01-01 08:33:00,39.0,37.0,-100.00,WNW,291,3.0,7.0,94,0.00,,,0.54,1.000000,,2013-01-01 14:33:00,
2013-01-01 08:43:00,39.0,37.0,-100.00,WNW,291,3.0,7.0,94,0.00,,,0.54,1.000000,,2013-01-01 14:43:00,
2013-01-01 08:53:00,39.0,37.0,-100.00,WNW,291,3.0,7.0,94,0.00,,,0.54,1.000000,,2013-01-01 14:53:00,
2013-01-01 09:02:00,40.0,38.0,-100.00,NW,305,3.0,5.0,94,0.00,,,0.49,36.000000,,2013-01-01 15:02:00,
2013-01-01 09:33:00,40.0,38.0,-100.00,NW,305,3.0,5.0,94,0.00,,,0.49,36.000000,,2013-01-01 15:33:00,
2013-01-01 09:43:00,40.0,38.0,-100.00,NW,305,3.0,5.0,94,0.00,,,0.49,36.000000,,2013-01-01 15:43:00,
2013-01-01 09:53:00,40.0,38.0,-100.00,NW,305,3.0,5.0,94,0.00,,,0.49,36.000000,,2013-01-01 15:53:00,
2013-01-01 10:02:00,42.0,40.0,-100.00,NW,306,3.0,6.0,93,0.01,,,0.39,98.000000,,2013-01-01 16:02:00,
2013-01-01 10:33:00,42.0,40.0,-100.00,NW,306,3.0,6.0,93,0.01,,,0.39,98.000000,,2013-01-01 16:33:00,
2013-01-01 10:43:00,42.0,40.0,-100.00,NW,306,3.0,6.0,93,0.01,,,0.39,98.000000,,2013-01-01 16:43:00,
2013-01-01 10:53:00,42.0,40.0,-100.00,NW,306,3.0,6.0,93,0.01,,,0.39,98.000000,,2013-01-01 16:53:00,
2013-01-01 11:02:00,42.0,38.0,-100.00,NW,310,6.0,11.0,86,0.00,,,0.29,102.000000,,2013-01-01 17:02:00,
2013-01-01 11:33:00,42.0,38.0,-100.00,NW,310,6.0,11.0,86,0.00,,,0.29,102.000000,,2013-01-01 17:33:00,
2013-01-01 11:43:00,42.0,38.0,-100.00,NW,310,6.0,11.0,86,0.00,,,0.29,102.000000,,2013-01-01 17:43:00,
2013-01-01 11:53:00,42.0,38.0,-100.00,NW,310,6.0,11.0,86,0.00,,,0.29,102.000000,,2013-01-01 17:53:00,
2013-01-01 12:02:00,42.0,38.0,-100.00,NW,305,5.0,11.0,85,0.00,,,0.26,129.000000,,2013-01-01 18:02:00,
2013-01-01 12:33:00,42.0,38.0,-100.00,NW,305,5.0,11.0,85,0.00,,,0.26,129.000000,,2013-01-01 18:33:00,
2013-01-01 12:43:00,42.0,38.0,-100.00,NW,305,5.0,11.0,85,0.00,,,0.26,129.000000,,2013-01-01 18:43:00,
2013-01-01 12:53:00,42.0,38.0,-100.00,NW,305,5.0,11.0,85,0.00,,,0.26,129.000000,,2013-01-01 18:53:00,
2013-01-01 13:02:00,42.0,37.0,-100.00,NW,306,6.0,12.0,83,0.00,,,0.23,136.000000,,2013-01-01 19:02:00,
2013-01-01 13:33:00,42.0,37.0,-100.00,NW,306,6.0,12.0,83,0.00,,,0.23,136.000000,,2013-01-01 19:33:00,
2013-01-01 13:43:00,42.0,37.0,-100.00,NW,306,6.0,12.0,83,0.00,,,0.23,136.000000,,2013-01-01 19:43:00,
2013-01-01 13:53:00,42.0,37.0,-100.00,NW,306,6.0,12.0,83,0.00,,,0.23,136.000000,,2013-01-01 19:53:00,
2013-01-01 14:02:00,43.0,38.0,-100.00,NW,310,7.0,11.0,81,0.00,,,0.15,202.000000,,2013-01-01 20:02:00,
2013-01-01 14:23:00,43.0,38.0,-100.00,NW,310,7.0,11.0,81,0.00,,,0.15,202.000000,,2013-01-01 20:23:00,
2013-01-01 14:32:00,43.0,38.0,-100.00,NW,310,7.0,11.0,81,0.00,,,0.15,202.000000,,2013-01-01 20:32:00,
2013-01-01 14:42:00,43.0,38.0,-100.00,NW,310,7.0,11.0,81,0.00,,,0.15,202.000000,,2013-01-01 20:42:00,
2013-01-01 14:53:00,43.0,38.0,-100.00,NW,310,7.0,11.0,81,0.00,,,0.15,202.000000,,2013-01-01 20:53:00,
2013-01-01 15:02:00,42.0,37.0,-100.00,NW,323,5.0,11.0,82,0.00,,,0.03,104.000000,,2013-01-01 21:02:00,
2013-01-01 15:33:00,42.0,37.0,-100.00,NW,323,5.0,11.0,82,0.00,,,0.03,104.000000,,2013-01-01 21:33:00,
2013-01-01 15:42:00,42.0,37.0,-100.00,NW,323,5.0,11.0,82,0.00,,,0.03,104.000000,,2013-01-01 21:42:00,
2013-01-01 15:53:00,42.0,37.0,-100.00,NW,323,5.0,11.0,82,0.00,,,0.03,104.000000,,2013-01-01 21:53:00,
2013-01-01 16:02:00,41.0,36.0,-100.00,NW,325,6.0,15.0,82,0.00,,,0.01,52.000000,,2013-01-01 22:02:00,
2013-01-01 16:33:00,41.0,36.0,-100.00,NW,325,6.0,15.0,82,0.00,,,0.01,52.000000,,2013-01-01 22:33:00,
2013-01-01 16:43:00,41.0,36.0,-100.00,NW,325,6.0,15.0,82,0.00,,,0.01,52.000000,,2013-01-01 22:43:00,
2013-01-01 16:52:00,41.0,36.0,-100.00,NW,325,6.0,15.0,82,0.00,,,0.01,52.000000,,2013-01-01 22:52:00,
2013-01-01 17:02:00,40.0,34.0,-100.00,NW,323,5.0,14.0,79,0.00,,,0.01,18.000000,,2013-01-01 23:02:00,
2013-01-01 17:22:00,40.0,34.0,-100.00,NW,323,5.0,14.0,79,0.00,,,0.01,18.000000,,2013-01-01 23:22:00,
2013-01-01 17:33:00,40.0,34.0,-100.00,NW,323,5.0,14.0,79,0.00,,,0.01,18.000000,,2013-01-01 23:33:00,
2013-01-01 17:42:00,40.0,34.0,-100.00,NW,323,5.0,14.0,79,0.00,,,0.01,18.000000,,2013-01-01 23:42:00,
2013-01-01 17:53:00,40.0,34.0,-100.00,NW,323,5.0,14.0,79,0.00,,,0.01,18.000000,,2013-01-01 23:53:00,
2013-01-01 18:02:00,39.0,33.0,-100.00,NW,315,4.0,11.0,79,0.00,,,0.01,0.000000,,2013-01-02 00:02:00,
2013-01-01 18:32:00,39.0,33.0,-100.00,NW,315,4.0,11.0,79,0.00,,,0.01,0.000000,,2013-01-02 00:32:00,
2013-01-01 18:43:00,39.0,33.0,-100.00,NW,315,4.0,11.0,79,0.00,,,0.01,0.000000,,2013-01-02 00:43:00,
2013-01-01 18:53:00,39.0,33.0,-100.00,NW,315,4.0,11.0,79,0.00,,,0.01,0.000000,,2013-01-02 00:53:00,
2013-01-01 19:02:00,37.0,31.0,-100.00,WNW,295,5.0,9.0,80,0.00,,,0.01,0.000000,,2013-01-02 01:02:00,
2013-01-01 19:22:00,37.0,31.0,-100.00,WNW,295,5.0,9.0,80,0.00,,,0.01,0.000000,,2013-01-02 01:22:00,
2013-01-01 19:33:00,37.0,31.0,-100.00,WNW,295,5.0,9.0,80,0.00,,,0.01,0.000000,,2013-01-02 01:33:00,
2013-01-01 19:42:00,37.0,31.0,-100.00,WNW,295,5.0,9.0,80,0.00,,,0.01,0.000000,,2013-01-02 01:42:00,
2013-01-01 19:52:00,37.0,31.0,-100.00,WNW,295,5.0,9.0,80,0.00,,,0.01,0.000000,,2013-01-02 01:52:00,
2013-01-01 20:02:00,36.0,30.0,-100.00,NW,306,5.0,10.0,80,0.00,,,0.01,0.000000,,2013-01-02 02:02:00,
2013-01-01 20:22:00,36.0,30.0,-100.00,NW,306,5.0,10.0,80,0.00,,,0.01,0.000000,,2013-01-02 02:22:00,
2013-01-01 20:32:00,36.0,30.0,-100.00,NW,306,5.0,10.0,80,0.00,,,0.01,0.000000,,2013-01-02 02:32:00,
2013-01-01 20:42:00,36.0,30.0,-100.00,NW,306,5.0,10.0,80,0.00,,,0.01,0.000000,,2013-01-02 02:42:00,
2013-01-01 20:53:00,36.0,30.0,-100.00,NW,306,5.0,10.0,80,0.00,,,0.01,0.000000,,2013-01-02 02:53:00,
2013-01-01 21:02:00,36.0,30.0,-100.00,NW,320,4.0,11.0,79,0.00,,,-99.99,0.000000,,2013-01-02 03:02:00,
2013-01-01 21:32:00,36.0,30.0,-100.00,NW,320,4.0,11.0,79,0.00,,,-99.99,0.000000,,2013-01-02 03:32:00,
2013-01-01 21:42:00,36.0,30.0,-100.00,NW,320,4.0,11.0,79,0.00,,,-99.99,0.000000,,2013-01-02 03:42:00,
2013-01-01 21:53:00,36.0,30.0,-100.00,NW,320,4.0,11.0,79,0.00,,,-99.99,0.000000,,2013-01-02 03:53:00,
2013-01-01 22:02:00,36.0,30.0,-100.00,NNE,20,3.0,10.0,80,0.00,,,0.01,0.000000,,2013-01-02 04:02:00,
2013-01-01 22:32:00,36.0,30.0,-100.00,NNE,20,3.0,10.0,80,0.00,,,0.01,0.000000,,2013-01-02 04:32:00,
2013-01-01 22:42:00,36.0,30.0,-100.00,NNE,20,3.0,10.0,80,0.00,,,0.01,0.000000,,2013-01-02 04:42:00,
2013-01-01 22:52:00,36.0,30.0,-100.00,NNE,20,3.0,10.0,80,0.00,,,0.01,0.000000,,2013-01-02 04:52:00,
2013-01-01 23:02:00,35.0,30.0,-100.00,WNW,298,3.0,7.0,82,0.00,,,0.01,0.000000,,2013-01-02 05:02:00,
2013-01-01 23:33:00,35.0,30.0,-100.00,WNW,298,3.0,7.0,82,0.00,,,0.01,0.000000,,2013-01-02 05:33:00,
2013-01-01 23:43:00,35.0,30.0,-100.00,WNW,298,3.0,7.0,82,0.00,,,0.01,0.000000,,2013-01-02 05:43:00,
2013-01-01 23:53:00,35.0,30.0,-100.00,WNW,298,3.0,7.0,82,0.00,,,0.01,0.000000,,2013-01-02 05:53:00,